createdAt,value
2023-04-24T00:01:45.858Z,7.80
2023-04-24T00:04:15.313Z,8.20
2023-04-24T00:06:43.905Z,8.30
2023-04-24T00:09:11.251Z,8.41
2023-04-24T00:11:38.368Z,8.46
2023-04-24T00:14:05.249Z,8.31
2023-04-24T00:16:31.993Z,7.83
2023-04-24T00:18:59.378Z,8.26
2023-04-24T00:21:26.816Z,8.36
2023-04-24T00:23:54.462Z,8.25
2023-04-24T00:26:21.215Z,8.12
2023-04-24T00:28:48.084Z,8.11
2023-04-24T00:31:14.861Z,8.21
2023-04-24T00:33:41.911Z,8.44
2023-04-24T00:36:08.689Z,8.56
2023-04-24T00:38:35.463Z,8.22
2023-04-24T00:41:02.499Z,8.30
2023-04-24T00:43:29.309Z,8.42
2023-04-24T00:49:48.959Z,8.59
2023-04-24T00:52:18.737Z,8.35
2023-04-24T00:54:46.460Z,8.57
2023-04-24T00:57:16.291Z,8.32
2023-04-24T00:59:44.658Z,8.39
2023-04-24T01:02:13.033Z,8.30
2023-04-24T01:04:40.658Z,8.10
2023-04-24T01:07:11.610Z,8.45
2023-04-24T01:09:43.107Z,8.57
2023-04-24T01:12:10.541Z,8.39
2023-04-24T01:14:38.640Z,7.96
2023-04-24T01:17:05.505Z,8.41
2023-04-24T01:19:32.350Z,8.54
2023-04-24T01:22:03.003Z,8.14
2023-04-24T01:24:30.535Z,8.05
2023-04-24T01:26:58.014Z,8.02
2023-04-24T01:29:25.525Z,8.34
2023-04-24T01:31:52.547Z,8.08
2023-04-24T01:34:19.706Z,8.33
2023-04-24T01:36:47.603Z,8.21
2023-04-24T01:39:14.602Z,8.45
2023-04-24T01:41:41.505Z,8.55
2023-04-24T01:44:08.595Z,8.71
2023-04-24T01:46:36.849Z,8.61
2023-04-24T01:49:04.773Z,8.68
2023-04-24T01:55:31.165Z,8.56
2023-04-24T01:57:58.185Z,8.42
2023-04-24T02:00:25.873Z,8.57
2023-04-24T02:02:53.827Z,8.45
2023-04-24T02:05:20.864Z,8.20
2023-04-24T02:07:47.719Z,8.44
2023-04-24T02:10:14.426Z,8.21
2023-04-24T02:12:44.136Z,8.33
2023-04-24T02:15:11.676Z,8.57
2023-04-24T02:17:38.796Z,8.23
2023-04-24T02:20:07.942Z,8.20
2023-04-24T02:22:34.831Z,8.31
2023-04-24T02:25:02.776Z,8.33
2023-04-24T02:27:29.738Z,8.42
2023-04-24T02:29:57.391Z,8.35
2023-04-24T02:32:24.088Z,8.35
2023-04-24T02:34:50.953Z,8.40
2023-04-24T02:37:17.721Z,8.30
2023-04-24T02:39:44.963Z,8.17
2023-04-24T02:42:11.824Z,8.31
2023-04-24T02:44:38.608Z,7.95
2023-04-24T02:47:05.380Z,8.19
2023-04-24T02:49:32.186Z,8.07
2023-04-24T02:51:58.872Z,8.00
2023-04-24T02:54:25.947Z,8.32
2023-04-24T02:56:52.650Z,8.25
2023-04-24T02:59:19.506Z,8.34
2023-04-24T03:01:46.328Z,8.33
2023-04-24T03:04:13.320Z,8.29
2023-04-24T03:06:40.180Z,8.23
2023-04-24T03:09:07.200Z,8.16
2023-04-24T03:11:33.944Z,8.35
2023-04-24T03:14:01.076Z,8.42
2023-04-24T03:16:27.914Z,8.49
2023-04-24T03:18:55.926Z,8.54
2023-04-24T03:21:25.277Z,8.54
2023-04-24T03:23:52.058Z,8.36
2023-04-24T03:26:19.311Z,8.42
2023-04-24T03:28:59.311Z,7.97
2023-04-24T03:31:26.209Z,8.35
2023-04-24T03:33:52.954Z,8.42
2023-04-24T03:36:20.443Z,8.11
2023-04-24T03:38:47.172Z,8.26
2023-04-24T03:41:33.012Z,8.23
2023-04-24T03:44:09.994Z,8.33
2023-04-24T03:46:37.283Z,8.44
2023-04-24T03:49:04.180Z,8.37
2023-04-24T03:51:34.941Z,8.47
2023-04-24T03:54:21.387Z,8.10
2023-04-24T03:56:49.729Z,7.86
2023-04-24T03:59:17.008Z,8.07
2023-04-24T04:01:48.315Z,8.46
2023-04-24T04:04:17.223Z,8.58
2023-04-24T04:06:45.495Z,8.57
2023-04-24T04:09:12.571Z,8.53
2023-04-24T04:11:39.346Z,8.49
2023-04-24T04:14:06.416Z,8.39
2023-04-24T04:16:35.200Z,8.44
2023-04-24T04:19:04.232Z,8.18
2023-04-24T04:21:32.410Z,8.20
2023-04-24T04:24:10.935Z,7.71
2023-04-24T04:26:42.335Z,8.23
2023-04-24T04:29:11.247Z,8.27
2023-04-24T04:31:42.073Z,8.40
2023-04-24T04:34:13.695Z,8.58
2023-04-24T04:36:42.300Z,8.03
2023-04-24T04:39:22.263Z,8.25
2023-04-24T04:42:04.827Z,8.17
2023-04-24T04:44:37.707Z,8.20
2023-04-24T04:47:06.704Z,8.16
2023-04-24T04:49:36.340Z,7.86
2023-04-24T04:52:49.061Z,8.19
2023-04-24T04:55:27.023Z,8.40
2023-04-24T04:58:26.371Z,7.74
2023-04-24T05:00:58.553Z,8.03
2023-04-24T05:03:33.333Z,8.10
2023-04-24T05:06:05.428Z,8.03
2023-04-24T05:08:35.682Z,7.76
2023-04-24T05:11:03.770Z,7.48
2023-04-24T05:13:40.698Z,7.92
2023-04-24T05:16:33.976Z,7.49
2023-04-24T05:19:01.474Z,7.46
2023-04-24T05:21:33.944Z,7.73
2023-04-24T05:24:01.102Z,7.71
2023-04-24T05:26:58.327Z,7.07
2023-04-24T05:29:32.320Z,6.82
2023-04-24T05:31:59.317Z,7.17
2023-04-24T05:34:27.055Z,7.56
2023-04-24T05:36:57.006Z,7.62
2023-04-24T05:39:26.053Z,7.85
2023-04-24T05:42:14.875Z,7.50
2023-04-24T05:45:33.649Z,8.50
2023-04-24T05:48:01.050Z,8.36
2023-04-24T05:50:28.171Z,8.81
2023-04-24T05:52:55.004Z,8.90
2023-04-24T05:55:26.909Z,9.08
2023-04-24T05:58:10.448Z,8.79
2023-04-24T06:00:45.921Z,9.05
2023-04-24T06:03:16.014Z,8.45
2023-04-24T06:05:46.509Z,9.14
2023-04-24T06:11:05.574Z,9.35
2023-04-24T06:13:50.850Z,8.71
2023-04-24T06:16:39.955Z,8.16
2023-04-24T06:19:16.967Z,8.13
2023-04-24T06:21:44.117Z,8.86
2023-04-24T06:24:11.776Z,8.24
2023-04-24T06:26:38.742Z,8.88
2023-04-24T06:29:08.512Z,9.06
2023-04-24T06:31:38.376Z,9.61
2023-04-24T06:34:05.615Z,9.58
2023-04-24T06:36:35.863Z,9.25
2023-04-24T06:39:03.703Z,9.10
2023-04-24T06:41:30.929Z,9.79
2023-04-24T06:43:58.399Z,9.75
2023-04-24T06:46:27.452Z,9.97
2023-04-24T06:48:57.598Z,9.37
2023-04-24T06:51:25.193Z,9.39
2023-04-24T06:53:53.593Z,9.99
2023-04-24T06:56:21.441Z,9.50
2023-04-24T06:58:48.931Z,9.97
2023-04-24T07:01:15.981Z,9.80
2023-04-24T07:03:43.519Z,9.49
2023-04-24T07:06:12.003Z,10.14
2023-04-24T07:08:38.762Z,9.60
2023-04-24T07:11:06.659Z,9.19
2023-04-24T07:13:33.529Z,9.30
2023-04-24T07:16:00.450Z,8.77
2023-04-24T07:18:27.480Z,9.72
2023-04-24T07:20:54.211Z,9.38
2023-04-24T07:23:21.255Z,8.87
2023-04-24T07:25:48.244Z,8.34
2023-04-24T07:28:15.284Z,8.43
2023-04-24T07:30:42.042Z,8.24
2023-04-24T07:33:09.409Z,8.18
2023-04-24T07:35:37.666Z,8.21
2023-04-24T07:38:04.352Z,8.87
2023-04-24T07:40:31.110Z,8.88
2023-04-24T07:42:58.432Z,8.93
2023-04-24T07:45:27.170Z,9.02
2023-04-24T07:47:54.122Z,8.77
2023-04-24T07:50:21.626Z,8.01
2023-04-24T07:52:48.686Z,8.68
2023-04-24T07:55:15.574Z,9.54
2023-04-24T07:57:42.405Z,9.79
2023-04-24T08:00:09.720Z,9.53
2023-04-24T08:02:39.698Z,9.46
2023-04-24T08:05:07.681Z,9.97
2023-04-24T08:07:36.391Z,10.82
2023-04-24T08:10:03.680Z,10.75
2023-04-24T08:12:30.802Z,10.24
2023-04-24T08:14:57.889Z,10.98
2023-04-24T08:17:25.419Z,12.02
2023-04-24T08:19:54.196Z,13.03
2023-04-24T08:22:21.137Z,12.72
2023-04-24T08:24:48.060Z,11.66
2023-04-24T08:27:14.838Z,9.77
2023-04-24T08:29:41.939Z,10.43
2023-04-24T08:32:09.124Z,10.02
2023-04-24T08:34:35.997Z,9.44
2023-04-24T08:37:03.690Z,7.69
2023-04-24T08:39:30.656Z,9.23
2023-04-24T08:41:57.583Z,9.61
2023-04-24T08:44:24.592Z,10.88
2023-04-24T08:46:52.658Z,10.17
2023-04-24T08:49:20.162Z,10.59
2023-04-24T08:51:48.778Z,10.34
2023-04-24T08:54:16.150Z,10.30
2023-04-24T08:56:45.943Z,9.14
2023-04-24T08:59:14.011Z,9.95
2023-04-24T09:01:42.301Z,10.67
2023-04-24T09:04:15.964Z,10.62
2023-04-24T09:06:46.071Z,8.97
2023-04-24T09:09:13.070Z,9.45
2023-04-24T09:11:40.009Z,9.50
2023-04-24T09:14:07.886Z,9.58
2023-04-24T09:16:36.616Z,8.99
2023-04-24T09:19:04.576Z,9.99
2023-04-24T09:21:36.694Z,10.85
2023-04-24T09:24:06.598Z,10.24
2023-04-24T09:26:35.938Z,9.92
2023-04-24T09:29:05.119Z,10.18
2023-04-24T09:31:32.331Z,10.04
2023-04-24T09:34:02.041Z,9.78
2023-04-24T09:36:34.331Z,8.47
2023-04-24T09:39:10.780Z,9.13
2023-04-24T09:41:51.997Z,9.41
2023-04-24T09:44:19.148Z,9.21
2023-04-24T09:46:50.855Z,8.74
2023-04-24T09:49:22.837Z,8.96
2023-04-24T09:51:49.817Z,9.48
2023-04-24T09:54:19.693Z,8.72
2023-04-24T09:56:48.765Z,9.12
2023-04-24T09:59:17.057Z,9.30
2023-04-24T10:01:45.775Z,9.15
2023-04-24T10:04:33.331Z,8.77
2023-04-24T10:07:02.229Z,8.95
2023-04-24T10:09:29.405Z,8.96
2023-04-24T10:11:56.770Z,8.72
2023-04-24T10:14:25.915Z,8.75
2023-04-24T10:16:56.176Z,8.80
2023-04-24T10:19:27.107Z,8.46
2023-04-24T10:21:55.934Z,8.93
2023-04-24T10:24:22.842Z,8.10
2023-04-24T10:26:50.178Z,8.90
2023-04-24T10:29:20.081Z,8.53
2023-04-24T10:31:48.130Z,8.44
2023-04-24T10:34:17.817Z,7.97
2023-04-24T10:36:49.600Z,8.37
2023-04-24T10:39:17.848Z,8.59
2023-04-24T10:41:44.932Z,8.84
2023-04-24T10:44:14.814Z,8.32
2023-04-24T10:46:47.354Z,8.69
2023-04-24T10:49:14.676Z,8.76
2023-04-24T10:51:50.286Z,8.98
2023-04-24T10:54:45.487Z,9.38
2023-04-24T10:57:24.558Z,9.34
2023-04-24T11:00:10.871Z,9.24
2023-04-24T11:02:39.643Z,9.08
2023-04-24T11:05:07.741Z,8.63
2023-04-24T11:08:14.646Z,9.17
2023-04-24T11:10:46.078Z,9.29
2023-04-24T11:13:17.187Z,9.21
2023-04-24T11:15:44.348Z,9.45
2023-04-24T11:18:16.520Z,9.13
2023-04-24T11:20:45.461Z,9.30
2023-04-24T11:23:14.221Z,9.50
2023-04-24T11:25:42.861Z,8.93
2023-04-24T11:28:17.510Z,9.11
2023-04-24T11:30:47.830Z,9.19
2023-04-24T11:33:21.775Z,8.29
2023-04-24T11:35:48.797Z,8.16
2023-04-24T11:38:24.595Z,9.00
2023-04-24T11:40:52.505Z,8.43
2023-04-24T11:43:20.888Z,8.36
2023-04-24T11:45:51.198Z,8.76
2023-04-24T11:48:23.677Z,8.80
2023-04-24T11:50:51.717Z,9.36
2023-04-24T11:53:22.699Z,9.31
2023-04-24T11:55:55.207Z,9.96
2023-04-24T11:58:23.799Z,10.48
2023-04-24T12:00:59.297Z,10.43
2023-04-24T12:03:28.730Z,10.31
2023-04-24T12:06:09.556Z,10.34
2023-04-24T12:08:38.287Z,10.34
2023-04-24T12:11:10.531Z,9.76
2023-04-24T12:13:37.604Z,9.88
2023-04-24T12:16:06.590Z,10.35
2023-04-24T12:18:33.621Z,9.43
2023-04-24T12:21:23.743Z,10.11
2023-04-24T12:23:52.021Z,9.24
2023-04-24T12:26:20.664Z,8.95
2023-04-24T12:28:50.337Z,10.70
2023-04-24T12:31:18.282Z,10.75
2023-04-24T12:33:45.310Z,10.94
2023-04-24T12:36:13.458Z,9.96
2023-04-24T12:38:45.484Z,10.42
2023-04-24T12:41:14.471Z,9.45
2023-04-24T12:43:55.864Z,10.28
2023-04-24T12:46:22.974Z,10.07
2023-04-24T12:48:50.070Z,9.80
2023-04-24T12:51:16.925Z,9.41
2023-04-24T12:53:44.036Z,9.30
2023-04-24T12:56:11.161Z,8.53
2023-04-24T12:58:40.916Z,8.59
2023-04-24T13:01:07.744Z,7.78
2023-04-24T13:03:34.735Z,7.45
2023-04-24T13:06:01.752Z,7.48
2023-04-24T13:08:28.640Z,8.28
2023-04-24T13:10:55.579Z,8.61
2023-04-24T13:13:22.458Z,8.82
2023-04-24T13:15:49.481Z,8.68
2023-04-24T13:18:16.922Z,8.66
2023-04-24T13:20:45.218Z,8.26
2023-04-24T13:23:12.337Z,8.37
2023-04-24T13:25:40.253Z,8.94
2023-04-24T13:28:11.899Z,9.08
2023-04-24T13:30:38.676Z,8.98
2023-04-24T13:33:05.558Z,9.19
2023-04-24T13:35:32.473Z,9.42
2023-04-24T13:37:59.562Z,8.95
2023-04-24T13:40:26.639Z,8.43
2023-04-24T13:42:53.464Z,7.89
2023-04-24T13:45:25.308Z,7.72
2023-04-24T13:47:52.985Z,8.43
2023-04-24T13:50:20.283Z,8.57
2023-04-24T13:52:47.141Z,7.85
2023-04-24T13:55:13.850Z,8.28
2023-04-24T13:57:40.746Z,7.97
2023-04-24T14:00:11.566Z,7.91
2023-04-24T14:02:39.012Z,8.13
2023-04-24T14:05:07.105Z,7.73
2023-04-24T14:07:33.922Z,8.28
2023-04-24T14:10:01.031Z,8.40
2023-04-24T14:12:28.268Z,8.28
2023-04-24T14:14:55.268Z,8.26
2023-04-24T14:17:22.559Z,8.52
2023-04-24T14:19:49.533Z,8.52
2023-04-24T14:22:16.421Z,8.24
2023-04-24T14:24:43.180Z,8.67
2023-04-24T14:27:09.972Z,9.05
2023-04-24T14:29:36.691Z,8.62
2023-04-24T14:32:03.477Z,8.79
2023-04-24T14:34:30.360Z,8.82
2023-04-24T14:36:57.162Z,8.44
2023-04-24T14:39:23.952Z,8.60
2023-04-24T14:41:50.977Z,8.90
2023-04-24T14:44:17.915Z,8.82
2023-04-24T14:46:44.802Z,8.44
2023-04-24T14:49:13.408Z,8.54
2023-04-24T14:51:40.357Z,8.73
2023-04-24T14:54:07.484Z,8.74
2023-04-24T14:56:34.302Z,8.78
2023-04-24T14:59:00.998Z,9.16
2023-04-24T15:01:27.822Z,9.18
2023-04-24T15:03:55.231Z,9.47
2023-04-24T15:06:22.120Z,9.44
2023-04-24T15:08:50.526Z,8.82
2023-04-24T15:11:18.453Z,9.27
2023-04-24T15:13:49.408Z,9.65
2023-04-24T15:16:16.686Z,9.20
2023-04-24T15:18:43.723Z,9.74
2023-04-24T15:21:11.004Z,9.85
2023-04-24T15:23:37.691Z,8.30
2023-04-24T15:26:07.585Z,9.12
2023-04-24T15:28:34.435Z,9.00
2023-04-24T15:31:01.347Z,8.73
2023-04-24T15:33:28.179Z,8.04
2023-04-24T15:35:59.009Z,8.76
2023-04-24T15:38:27.441Z,8.83
2023-04-24T15:40:54.274Z,8.83
2023-04-24T15:43:21.198Z,8.69
2023-04-24T15:45:48.076Z,8.22
2023-04-24T15:48:14.907Z,8.34
2023-04-24T15:50:41.849Z,8.52
2023-04-24T15:53:08.807Z,8.69
2023-04-24T15:55:35.798Z,8.81
2023-04-24T15:58:02.893Z,8.69
2023-04-24T16:00:34.276Z,8.45
2023-04-24T16:03:02.234Z,8.46
2023-04-24T16:05:29.388Z,8.16
2023-04-24T16:07:56.246Z,8.60
2023-04-24T16:10:23.139Z,8.88
2023-04-24T16:12:51.747Z,8.33
2023-04-24T16:15:18.750Z,7.69
2023-04-24T16:17:46.004Z,8.26
2023-04-24T16:20:14.451Z,8.49
2023-04-24T16:22:41.407Z,8.96
2023-04-24T16:25:09.328Z,8.79
2023-04-24T16:27:36.676Z,8.97
2023-04-24T16:30:04.156Z,8.99
2023-04-24T16:32:31.113Z,8.75
2023-04-24T16:34:57.820Z,8.60
2023-04-24T16:37:25.072Z,8.77
2023-04-24T16:39:51.927Z,8.80
2023-04-24T16:42:18.885Z,8.72
2023-04-24T16:44:47.048Z,8.73
2023-04-24T16:47:17.331Z,8.94
2023-04-24T16:49:44.176Z,9.07
2023-04-24T16:53:03.688Z,8.72
2023-04-24T16:55:30.823Z,8.99
2023-04-24T16:58:27.951Z,9.07
2023-04-24T17:00:47.281Z,9.18
2023-04-24T17:03:25.023Z,9.22
2023-04-24T17:05:52.069Z,9.05
2023-04-24T17:08:18.861Z,8.99
2023-04-24T17:10:45.727Z,8.87
2023-04-24T17:13:14.465Z,8.83
2023-04-24T17:15:42.619Z,8.82
2023-04-24T17:18:09.496Z,8.70
2023-04-24T17:20:36.265Z,8.48
2023-04-24T17:23:02.996Z,8.62
2023-04-24T17:25:30.178Z,8.65
2023-04-24T17:27:57.850Z,8.25
2023-04-24T17:30:24.854Z,8.45
2023-04-24T17:32:51.644Z,8.53
2023-04-24T17:35:18.957Z,8.52
2023-04-24T17:37:46.839Z,8.59
2023-04-24T17:40:13.702Z,8.53
2023-04-24T17:42:41.705Z,7.54
2023-04-24T17:45:09.103Z,7.94
2023-04-24T17:47:35.925Z,8.29
2023-04-24T17:50:03.129Z,8.37
2023-04-24T17:52:31.484Z,8.42
2023-04-24T17:54:58.357Z,8.14
2023-04-24T17:57:25.982Z,8.24
2023-04-24T17:59:53.523Z,7.77
2023-04-24T18:02:20.999Z,7.69
2023-04-24T18:04:48.122Z,7.97
2023-04-24T18:07:15.200Z,7.80
2023-04-24T18:09:42.074Z,7.92
2023-04-24T18:12:09.395Z,7.93
2023-04-24T18:14:36.300Z,7.98
2023-04-24T18:17:03.526Z,7.91
2023-04-24T18:19:30.466Z,7.85
2023-04-24T18:21:58.108Z,7.11
2023-04-24T18:24:24.893Z,6.78
2023-04-24T18:26:53.995Z,6.94
2023-04-24T18:29:21.293Z,7.17
2023-04-24T18:31:53.231Z,7.00
2023-04-24T18:34:20.256Z,6.64
2023-04-24T18:36:47.124Z,6.17
2023-04-24T18:39:14.280Z,6.56
2023-04-24T18:41:41.276Z,6.27
2023-04-24T18:44:09.316Z,6.34
2023-04-24T18:46:41.641Z,5.59
2023-04-24T18:49:08.744Z,5.75
2023-04-24T18:51:46.562Z,5.86
2023-04-24T18:54:17.368Z,5.92
2023-04-24T18:56:44.606Z,6.12
2023-04-24T18:59:11.392Z,6.22
2023-04-24T19:01:39.620Z,6.25
2023-04-24T19:04:06.684Z,6.44
2023-04-24T19:06:33.565Z,6.52
2023-04-24T19:09:00.450Z,6.59
2023-04-24T19:11:27.537Z,6.67
2023-04-24T19:13:54.382Z,6.73
2023-04-24T19:16:21.514Z,6.69
2023-04-24T19:18:48.597Z,6.08
2023-04-24T19:21:15.761Z,6.12
2023-04-24T19:23:43.715Z,5.92
2023-04-24T19:26:11.693Z,5.79
2023-04-24T19:28:39.174Z,5.76
2023-04-24T19:31:06.154Z,6.06
2023-04-24T19:33:33.027Z,6.21
2023-04-24T19:36:00.345Z,6.32
2023-04-24T19:38:27.621Z,6.34
2023-04-24T19:40:54.515Z,6.45
2023-04-24T19:43:21.375Z,6.44
2023-04-24T19:45:48.399Z,6.40
2023-04-24T19:48:15.430Z,6.57
2023-04-24T19:50:44.392Z,6.16
2023-04-24T19:53:12.377Z,6.24
2023-04-24T19:55:40.415Z,6.32
2023-04-24T19:58:07.450Z,6.24
2023-04-24T20:00:35.387Z,6.34
2023-04-24T20:03:03.181Z,6.44
2023-04-24T20:05:30.371Z,6.38
2023-04-24T20:07:57.154Z,6.46
2023-04-24T20:10:24.316Z,5.93
2023-04-24T20:12:51.344Z,6.28
2023-04-24T20:15:18.339Z,6.36
2023-04-24T20:17:45.687Z,6.30
2023-04-24T20:20:12.785Z,5.84
2023-04-24T20:22:39.869Z,6.24
2023-04-24T20:25:11.579Z,6.07
2023-04-24T20:27:38.526Z,6.23
2023-04-24T20:30:06.444Z,6.38
2023-04-24T20:32:33.337Z,6.49
2023-04-24T20:35:00.269Z,6.57
2023-04-24T20:37:27.082Z,6.45
2023-04-24T20:39:53.843Z,6.11
2023-04-24T20:42:20.924Z,6.51
2023-04-24T20:44:48.786Z,6.31
2023-04-24T20:47:16.088Z,6.60
2023-04-24T20:49:42.918Z,6.75
2023-04-24T20:52:09.729Z,6.58
2023-04-24T20:54:36.507Z,6.38
2023-04-24T20:57:03.903Z,6.33
2023-04-24T20:59:30.844Z,6.60
2023-04-24T21:01:57.683Z,6.36
2023-04-24T21:04:24.779Z,6.57
2023-04-24T21:06:51.772Z,6.47
2023-04-24T21:09:18.773Z,6.57
2023-04-24T21:11:45.560Z,6.37
2023-04-24T21:14:12.378Z,6.16
2023-04-24T21:16:40.066Z,6.51
2023-04-24T21:19:06.998Z,6.23
2023-04-24T21:21:34.127Z,6.34
2023-04-24T21:24:01.928Z,6.32
2023-04-24T21:26:28.766Z,6.39
2023-04-24T21:28:55.607Z,6.33
2023-04-24T21:31:22.583Z,6.56
2023-04-24T21:33:50.008Z,6.35
2023-04-24T21:37:20.111Z,6.47
2023-04-24T21:39:46.982Z,6.45
2023-04-24T21:42:14.196Z,6.55
2023-04-24T21:44:41.094Z,6.40
2023-04-24T21:47:08.023Z,6.58
2023-04-24T21:49:34.841Z,6.62
2023-04-24T21:52:01.632Z,6.21
2023-04-24T21:54:28.497Z,5.86
2023-04-24T21:56:55.604Z,6.27
2023-04-24T21:59:22.320Z,6.47
2023-04-24T22:01:49.160Z,6.46
2023-04-24T22:04:16.238Z,6.56
2023-04-24T22:06:43.108Z,6.59
2023-04-24T22:09:10.998Z,6.51
2023-04-24T22:11:38.249Z,6.44
2023-04-24T22:14:07.243Z,6.28
2023-04-24T22:16:34.695Z,6.45
2023-04-24T22:19:01.563Z,6.35
2023-04-24T22:21:28.656Z,6.47
2023-04-24T22:24:23.746Z,6.35
2023-04-24T22:26:51.986Z,6.38
2023-04-24T22:29:18.892Z,6.05
2023-04-24T22:31:45.891Z,6.24
2023-04-24T22:34:12.746Z,6.40
2023-04-24T22:36:39.600Z,6.14
2023-04-24T22:39:06.550Z,6.24
2023-04-24T22:41:33.508Z,5.93
2023-04-24T22:44:00.333Z,5.90
2023-04-24T22:46:27.588Z,6.21
2023-04-24T22:48:54.492Z,6.29
2023-04-24T22:51:21.439Z,6.35
2023-04-24T22:53:49.762Z,6.14
2023-04-24T22:56:17.429Z,5.93
2023-04-24T22:58:44.313Z,5.96
2023-04-24T23:01:11.299Z,6.05
2023-04-24T23:03:38.308Z,5.91
2023-04-24T23:06:05.472Z,5.90
2023-04-24T23:08:32.568Z,6.14
2023-04-24T23:10:59.804Z,6.14
2023-04-24T23:13:27.382Z,6.07
2023-04-24T23:15:54.824Z,6.29
2023-04-24T23:18:22.098Z,6.27
2023-04-24T23:20:49.072Z,6.08
2023-04-24T23:23:16.712Z,6.32
2023-04-24T23:25:43.661Z,5.76
2023-04-24T23:28:10.510Z,6.13
2023-04-24T23:30:37.483Z,6.25
2023-04-24T23:33:05.003Z,6.32
2023-04-24T23:35:32.020Z,6.02
2023-04-24T23:37:58.824Z,5.99
2023-04-24T23:40:25.647Z,6.14
2023-04-24T23:43:05.638Z,6.36
2023-04-24T23:45:34.491Z,6.38
2023-04-24T23:48:01.562Z,6.08
2023-04-24T23:50:28.962Z,6.07
2023-04-24T23:52:56.070Z,6.29
2023-04-24T23:55:22.836Z,5.95
2023-04-24T23:57:49.714Z,5.92
